Time;durP1;ratioP1;P1;durP2;ratioP2;P2;SDS_P1;SDS_P2;PMS_P1;PMS_P2;Temp;Humidity;BMP_temperature;BMP_pressure;BME280_temperature;BME280_humidity;BME280_pressure;Samples;Min_cycle;Max_cycle;Signal;HPM_P1;HPM_P2
2023/09/01 00:00:13;;;;;;;17.45;6.57;;;;;;;13.16;100.00;101004.88;5095380;28;20077;-75
2023/09/01 00:02:39;;;;;;;19.70;6.57;;;;;;;13.15;100.00;101002.31;5094661;28;20064;-75
2023/09/01 00:05:05;;;;;;;19.75;6.10;;;;;;;13.14;100.00;101004.16;5101827;28;20027;-75
2023/09/01 00:07:31;;;;;;;15.70;5.80;;;;;;;13.11;100.00;101002.56;5104279;28;20036;-75
2023/09/01 00:09:56;;;;;;;18.58;5.85;;;;;;;13.09;100.00;101006.41;5104018;28;20097;-75
2023/09/01 00:12:21;;;;;;;20.35;6.15;;;;;;;13.08;100.00;100996.59;5097060;28;20022;-75
2023/09/01 00:14:47;;;;;;;22.20;6.03;;;;;;;13.09;100.00;100992.91;5095278;28;20030;-75
2023/09/01 00:17:13;;;;;;;17.45;5.68;;;;;;;13.09;100.00;100990.22;5091993;28;20028;-75
2023/09/01 00:19:39;;;;;;;19.63;6.45;;;;;;;13.09;100.00;100987.50;5096365;28;20051;-75
2023/09/01 00:22:05;;;;;;;20.48;6.05;;;;;;;13.11;100.00;100999.03;5099742;28;20370;-75
2023/09/01 00:24:32;;;;;;;17.27;6.20;;;;;;;13.11;100.00;100991.78;5101829;28;20020;-75
2023/09/01 00:26:58;;;;;;;18.52;5.68;;;;;;;13.10;100.00;100991.91;5102475;27;20024;-75
2023/09/01 00:29:23;;;;;;;21.10;6.28;;;;;;;13.11;100.00;100985.53;5102437;28;20046;-75
2023/09/01 00:31:49;;;;;;;19.33;6.25;;;;;;;13.14;100.00;100992.53;5114100;28;20020;-75
2023/09/01 00:34:14;;;;;;;16.92;5.32;;;;;;;13.16;100.00;100990.56;5129955;28;20041;-74
2023/09/01 00:36:39;;;;;;;18.90;6.03;;;;;;;13.16;100.00;100983.31;5126336;28;20016;-75
2023/09/01 00:39:05;;;;;;;22.38;6.45;;;;;;;13.18;100.00;100981.34;5123209;28;20023;-75
2023/09/01 00:41:30;;;;;;;18.52;5.60;;;;;;;13.21;100.00;100977.56;5130271;28;20024;-75
2023/09/01 00:43:56;;;;;;;21.00;6.43;;;;;;;13.24;100.00;100975.44;5128405;28;20154;-75
2023/09/01 00:46:21;;;;;;;18.70;6.07;;;;;;;13.25;100.00;100977.16;5125904;28;20075;-75
2023/09/01 00:48:47;;;;;;;16.88;6.13;;;;;;;13.25;100.00;100974.47;5129379;28;20022;-75
2023/09/01 00:51:12;;;;;;;17.48;5.50;;;;;;;13.26;100.00;100973.47;5124774;28;20059;-75
2023/09/01 00:53:38;;;;;;;18.17;5.70;;;;;;;13.28;100.00;100981.47;5123465;28;20041;-75
2023/09/01 00:56:04;;;;;;;15.88;5.47;;;;;;;13.29;100.00;100984.03;5118913;28;20016;-75
2023/09/01 00:58:29;;;;;;;18.88;5.50;;;;;;;13.32;100.00;100976.66;5119133;28;20007;-75
2023/09/01 01:00:58;;;;;;;19.95;5.55;;;;;;;13.33;100.00;100968.41;5124342;27;20433;-75
2023/09/01 01:03:23;;;;;;;21.73;6.05;;;;;;;13.36;100.00;100970.06;5100289;28;20038;-75
2023/09/01 01:06:09;;;;;;;17.65;5.88;;;;;;;13.40;100.00;100980.47;5094571;28;20024;-75
2023/09/01 01:08:37;;;;;;;18.98;5.80;;;;;;;13.41;100.00;100984.88;5102946;28;20078;-75
2023/09/01 01:11:14;;;;;;;18.75;5.80;;;;;;;13.42;100.00;100985.72;5100099;28;20036;-75
2023/09/01 01:13:46;;;;;;;16.48;5.95;;;;;;;13.43;100.00;100990.16;5101356;28;20023;-75
2023/09/01 01:16:15;;;;;;;17.13;5.53;;;;;;;13.43;100.00;100987.47;5097566;28;20035;-75
2023/09/01 01:18:43;;;;;;;;;;;;;;;13.51;100.00;100992.22;5092396;28;20075;-75
2023/09/01 01:21:19;;;;;;;15.55;5.32;;;;;;;13.46;100.00;100982.63;5103221;28;19919;-75
2023/09/01 01:23:44;;;;;;;17.60;5.43;;;;;;;13.47;100.00;100980.81;5104248;28;20059;-75
2023/09/01 01:26:19;;;;;;;15.88;5.03;;;;;;;13.47;100.00;100970.03;5095267;28;20058;-75
2023/09/01 01:28:45;;;;;;;18.58;5.40;;;;;;;13.45;100.00;100971.97;5099855;28;20397;-75
2023/09/01 01:31:10;;;;;;;16.27;5.95;;;;;;;13.41;100.00;100970.50;5098274;28;20107;-75
2023/09/01 01:33:43;;;;;;;20.42;6.20;;;;;;;13.38;100.00;100976.16;5097411;28;20105;-75
2023/09/01 01:36:27;;;;;;;23.40;6.53;;;;;;;13.38;100.00;100976.16;5096400;28;20353;-75
2023/09/01 01:39:15;;;;;;;19.05;6.28;;;;;;;13.39;100.00;100977.88;5094257;28;20552;-75
2023/09/01 01:41:52;;;;;;;21.75;5.65;;;;;;;13.36;100.00;100979.00;5102593;28;20390;-75
2023/09/01 01:44:22;;;;;;;18.95;5.30;;;;;;;13.35;100.00;100984.53;5092492;28;20097;-75
2023/09/01 01:46:48;;;;;;;16.30;5.03;;;;;;;13.35;100.00;100984.53;5098402;28;20031;-75
2023/09/01 01:49:14;;;;;;;17.10;5.65;;;;;;;13.35;100.00;100992.63;5094134;28;20020;-75
2023/09/01 01:51:39;;;;;;;17.85;6.00;;;;;;;13.35;100.00;100992.63;5100859;28;20467;-75
2023/09/01 01:54:05;;;;;;;18.50;5.55;;;;;;;13.35;100.00;100989.91;5102465;28;20059;-75
2023/09/01 01:56:31;;;;;;;19.17;6.20;;;;;;;13.34;100.00;100994.47;5090315;28;20423;-75
2023/09/01 01:58:56;;;;;;;20.23;5.57;;;;;;;13.34;100.00;100989.06;5094190;28;20077;-75
2023/09/01 02:01:22;;;;;;;19.25;5.65;;;;;;;13.34;100.00;100986.38;5102292;28;20023;-75
2023/09/01 02:03:47;;;;;;;17.92;6.32;;;;;;;13.35;100.00;100988.06;5052891;28;1109742;-75
2023/09/01 02:06:12;;;;;;;18.58;6.15;;;;;;;13.36;100.00;100984.41;5096676;28;20454;-75
2023/09/01 02:08:38;;;;;;;20.08;6.88;;;;;;;13.35;100.00;100974.56;5102888;28;20495;-75
2023/09/01 02:11:04;;;;;;;17.40;5.93;;;;;;;13.36;100.00;100978.16;5101484;28;20076;-75
2023/09/01 02:13:30;;;;;;;16.65;5.63;;;;;;;13.37;100.00;100977.19;5101875;28;20024;-75
2023/09/01 02:15:56;;;;;;;15.63;5.55;;;;;;;13.38;100.00;100965.38;5101640;28;20085;-75
2023/09/01 02:18:21;;;;;;;24.38;7.00;;;;;;;13.39;100.00;100970.63;5093498;28;20093;-75
2023/09/01 02:20:47;;;;;;;19.08;6.97;;;;;;;13.40;100.00;100966.13;5096946;28;20103;-75
2023/09/01 02:23:15;;;;;;;16.80;5.03;;;;;;;13.41;100.00;100975.91;5101832;28;20382;-75
2023/09/01 02:25:40;;;;;;;18.67;6.28;;;;;;;13.43;100.00;100972.09;5100418;28;20028;-75
2023/09/01 02:28:06;;;;;;;20.67;6.68;;;;;;;13.46;100.00;100973.69;5097244;28;20080;-75
2023/09/01 02:30:32;;;;;;;16.48;5.93;;;;;;;13.45;100.00;100977.38;5093047;28;20471;-75
2023/09/01 02:32:57;;;;;;;16.73;6.35;;;;;;;13.46;100.00;100966.44;5101985;28;20028;-75
2023/09/01 02:35:22;;;;;;;21.05;6.22;;;;;;;13.45;100.00;100962.00;5094369;28;20031;-75
2023/09/01 02:37:49;;;;;;;22.35;6.65;;;;;;;13.45;100.00;100962.00;5098091;28;20494;-75
2023/09/01 02:40:15;;;;;;;19.35;6.30;;;;;;;13.44;100.00;100962.16;5087153;28;20121;-75
2023/09/01 02:42:41;;;;;;;15.95;5.28;;;;;;;13.42;100.00;100951.47;5089249;28;20040;-75
2023/09/01 02:45:09;;;;;;;20.83;6.38;;;;;;;13.41;100.00;100943.50;5104302;28;20023;-75
2023/09/01 02:47:35;;;;;;;17.67;5.97;;;;;;;13.40;100.00;100944.53;5098080;28;20434;-75
2023/09/01 02:50:02;;;;;;;19.02;6.30;;;;;;;13.39;100.00;100950.91;5097678;28;20047;-75
2023/09/01 02:52:27;;;;;;;19.35;6.15;;;;;;;13.38;100.00;100955.44;5101947;28;20588;-75
2023/09/01 02:54:55;;;;;;;18.17;6.05;;;;;;;13.39;100.00;100946.34;5091774;28;20024;-75
2023/09/01 02:57:20;;;;;;;19.15;6.72;;;;;;;13.40;100.00;100952.63;5097533;28;20471;-75
2023/09/01 02:59:46;;;;;;;19.95;6.47;;;;;;;13.39;100.00;100967.09;5096376;28;20035;-75
2023/09/01 03:02:11;;;;;;;18.20;5.88;;;;;;;13.38;100.00;100968.06;5097693;28;20035;-75
2023/09/01 03:04:37;;;;;;;18.95;6.35;;;;;;;13.37;100.00;100960.97;5105384;28;20039;-75
2023/09/01 03:07:02;;;;;;;18.83;6.88;;;;;;;13.36;100.00;100952.00;5097062;28;20046;-75
2023/09/01 03:09:28;;;;;;;18.65;6.18;;;;;;;13.35;100.00;100966.47;5099637;28;20031;-75
2023/09/01 03:11:53;;;;;;;20.63;6.07;;;;;;;13.35;100.00;100966.47;5105745;28;20359;-75
2023/09/01 03:14:18;;;;;;;18.98;6.88;;;;;;;13.34;100.00;100959.38;5108613;28;20424;-75
2023/09/01 03:16:44;;;;;;;16.85;5.75;;;;;;;13.35;100.00;100950.28;5098431;28;20028;-75
2023/09/01 03:19:09;;;;;;;19.30;6.07;;;;;;;13.35;100.00;100944.03;5104859;28;20106;-75
2023/09/01 03:21:35;;;;;;;17.48;5.63;;;;;;;13.37;100.00;100945.63;5107911;28;20036;-75
2023/09/01 03:24:00;;;;;;;18.85;6.40;;;;;;;13.37;100.00;100942.09;5123310;28;20036;-74
2023/09/01 03:26:25;;;;;;;16.63;5.78;;;;;;;13.40;100.00;100947.22;5128088;28;20115;-75
2023/09/01 03:28:52;;;;;;;17.73;5.82;;;;;;;13.38;100.00;100944.66;5129471;28;20036;-75
2023/09/01 03:31:17;;;;;;;18.58;6.40;;;;;;;13.40;100.00;100947.22;5130753;28;20016;-74
2023/09/01 03:33:43;;;;;;;16.88;5.78;;;;;;;13.41;100.00;100943.50;5120111;28;20047;-75
2023/09/01 03:36:09;;;;;;;19.60;6.13;;;;;;;13.42;100.00;100950.63;5127880;28;20015;-75
2023/09/01 03:38:35;;;;;;;16.45;6.03;;;;;;;13.43;100.00;100946.97;5132456;28;20004;-74
2023/09/01 03:41:04;;;;;;;18.13;6.57;;;;;;;13.45;100.00;100944.97;5125136;28;20030;-75
2023/09/01 03:43:30;;;;;;;19.98;7.07;;;;;;;13.47;100.00;100937.63;5125406;28;20020;-75
2023/09/01 03:45:57;;;;;;;20.33;6.55;;;;;;;13.49;100.00;100935.63;5132826;28;20064;-75
2023/09/01 03:48:23;;;;;;;17.02;6.03;;;;;;;13.51;100.00;100936.34;5123466;28;20034;-75
2023/09/01 03:51:07;;;;;;;18.88;6.28;;;;;;;13.55;100.00;100932.41;5120116;28;20000;-74
2023/09/01 03:53:33;;;;;;;19.98;6.38;;;;;;;13.56;100.00;100933.28;5110634;28;20067;-75
2023/09/01 03:56:01;;;;;;;18.73;6.43;;;;;;;13.56;100.00;100931.44;5127448;28;20020;-75
2023/09/01 03:58:26;;;;;;;19.38;6.30;;;;;;;13.58;100.00;100932.16;5124391;28;20008;-75
2023/09/01 04:00:51;;;;;;;19.38;6.07;;;;;;;13.60;100.00;100929.31;5122708;28;20166;-75
2023/09/01 04:03:17;;;;;;;18.70;6.20;;;;;;;13.61;100.00;100934.59;5125291;28;20054;-75
2023/09/01 04:05:42;;;;;;;17.80;6.40;;;;;;;13.61;100.00;100934.59;5125696;28;20087;-75
2023/09/01 04:08:07;;;;;;;18.33;6.43;;;;;;;13.62;100.00;100930.06;5120857;28;20032;-75
2023/09/01 04:10:33;;;;;;;20.77;7.05;;;;;;;13.63;100.00;100932.63;5128214;28;20054;-75
2023/09/01 04:12:58;;;;;;;16.67;5.93;;;;;;;13.64;100.00;100920.81;5119558;28;20077;-75
2023/09/01 04:15:23;;;;;;;19.83;6.72;;;;;;;13.67;100.00;100932.38;5127593;28;20032;-75
2023/09/01 04:17:49;;;;;;;20.27;6.10;;;;;;;13.69;100.00;100930.38;5125106;28;20031;-75
2023/09/01 04:20:14;;;;;;;18.05;6.15;;;;;;;13.69;100.00;100925.84;5123261;28;20100;-75
2023/09/01 04:22:39;;;;;;;21.38;7.25;;;;;;;13.72;100.00;100932.81;5121860;28;20076;-75
2023/09/01 04:25:05;;;;;;;18.95;6.88;;;;;;;13.72;100.00;100938.22;5120682;28;20008;-75
2023/09/01 04:27:30;;;;;;;19.63;6.43;;;;;;;13.73;100.00;100929.13;5122532;28;20021;-74
2023/09/01 04:29:55;;;;;;;21.15;6.82;;;;;;;13.74;100.00;100923.59;5107957;28;20055;-75
2023/09/01 04:32:21;;;;;;;18.20;6.50;;;;;;;13.75;100.00;100919.91;5107944;28;20467;-74
2023/09/01 04:34:46;;;;;;;17.88;6.53;;;;;;;13.77;100.00;100917.09;5102390;28;20035;-74
2023/09/01 04:37:12;;;;;;;20.73;7.20;;;;;;;13.78;100.00;100908.00;5093911;28;20101;-74
2023/09/01 04:39:37;;;;;;;19.63;6.10;;;;;;;13.80;100.00;100914.97;5093412;28;20100;-74
2023/09/01 04:42:02;;;;;;;18.80;6.68;;;;;;;13.82;100.00;100914.81;5095882;28;20399;-74
2023/09/01 04:44:28;;;;;;;18.17;5.88;;;;;;;13.83;100.00;100919.25;5092622;28;20016;-74
2023/09/01 04:46:53;;;;;;;16.13;5.63;;;;;;;13.84;100.00;100920.97;5092837;28;20058;-74
2023/09/01 04:49:18;;;;;;;18.73;7.07;;;;;;;13.85;100.00;100925.41;5096753;28;20020;-74
2023/09/01 04:51:44;;;;;;;20.38;7.32;;;;;;;13.84;100.00;100920.97;5096547;28;20024;-74
2023/09/01 04:54:09;;;;;;;17.38;6.05;;;;;;;13.82;100.00;100928.34;5103070;28;20027;-74
2023/09/01 04:56:34;;;;;;;19.55;6.90;;;;;;;13.83;100.00;100938.16;5098720;28;20121;-74
2023/09/01 04:59:00;;;;;;;14.95;5.57;;;;;;;13.84;100.00;100939.03;5092952;28;20024;-74
2023/09/01 05:01:25;;;;;;;16.52;5.53;;;;;;;13.84;100.00;100934.47;5098370;28;20028;-74
2023/09/01 05:03:50;;;;;;;18.10;6.47;;;;;;;13.87;100.00;100927.97;5103702;28;20052;-74
2023/09/01 05:06:16;;;;;;;19.08;6.85;;;;;;;13.86;100.00;100918.97;5094022;28;20035;-74
2023/09/01 05:08:41;;;;;;;18.58;6.20;;;;;;;13.87;100.00;100922.56;5094256;28;20106;-74
2023/09/01 05:11:06;;;;;;;20.23;6.22;;;;;;;13.88;100.00;100927.81;5101041;28;20028;-74
2023/09/01 05:13:32;;;;;;;23.35;7.70;;;;;;;13.90;100.00;100931.25;5101514;28;20474;-74
2023/09/01 05:15:57;;;;;;;21.48;6.25;;;;;;;13.93;100.00;100928.28;5099244;28;20463;-74
2023/09/01 05:18:22;;;;;;;16.95;6.38;;;;;;;13.93;100.00;100928.28;5093962;28;20098;-74
2023/09/01 05:20:48;;;;;;;19.65;6.82;;;;;;;13.96;100.00;100929.88;5095985;28;20027;-74
2023/09/01 05:23:14;;;;;;;21.50;5.93;;;;;;;13.97;100.00;100923.47;5094624;28;20031;-74
2023/09/01 05:25:39;;;;;;;18.38;6.13;;;;;;;13.99;100.00;100927.72;5101194;28;20111;-74
2023/09/01 05:28:04;;;;;;;17.27;6.47;;;;;;;14.01;100.00;100937.56;5104740;27;20024;-74
2023/09/01 05:30:30;;;;;;;17.92;6.53;;;;;;;14.03;100.00;100938.31;5103043;28;20079;-74
2023/09/01 05:32:55;;;;;;;17.52;6.32;;;;;;;14.05;100.00;100947.97;5100045;28;20012;-74
2023/09/01 05:35:20;;;;;;;19.05;6.18;;;;;;;14.07;100.00;100942.44;5100787;28;20028;-74
2023/09/01 05:37:46;;;;;;;23.30;7.55;;;;;;;14.08;100.00;100952.25;5104609;28;20101;-74
2023/09/01 05:40:11;;;;;;;19.63;6.60;;;;;;;14.09;100.00;100944.03;5100960;28;20104;-74
2023/09/01 05:42:37;;;;;;;18.63;6.28;;;;;;;14.12;100.00;100942.91;5116382;28;20039;-75
2023/09/01 05:45:02;;;;;;;18.80;6.10;;;;;;;14.13;100.00;100941.94;5118228;28;20039;-75
2023/09/01 05:47:28;;;;;;;18.92;6.03;;;;;;;14.12;100.00;100953.72;5125908;28;20015;-75
2023/09/01 05:49:53;;;;;;;20.23;6.60;;;;;;;14.14;100.00;100940.91;5127019;28;20031;-75
2023/09/01 05:52:18;;;;;;;19.40;6.65;;;;;;;14.15;100.00;100937.22;5119666;28;20029;-74
2023/09/01 05:54:44;;;;;;;18.50;6.22;;;;;;;14.17;100.00;100935.22;5121833;28;20284;-75
2023/09/01 05:57:09;;;;;;;18.33;6.63;;;;;;;14.20;100.00;100931.41;5117036;28;20036;-75
2023/09/01 05:59:34;;;;;;;19.10;6.95;;;;;;;14.22;100.00;100935.69;5126170;28;20027;-74
2023/09/01 06:02:00;;;;;;;18.83;7.10;;;;;;;14.25;100.00;100932.72;5113927;28;20043;-74
2023/09/01 06:04:25;;;;;;;22.15;7.45;;;;;;;14.27;100.00;100930.72;5119481;28;20052;-74
2023/09/01 06:06:50;;;;;;;23.55;8.02;;;;;;;14.29;100.00;100934.19;5107015;28;20031;-74
2023/09/01 06:09:16;;;;;;;23.67;8.57;;;;;;;14.32;100.00;100941.16;5106462;28;20027;-74
2023/09/01 06:11:41;;;;;;;20.88;8.43;;;;;;;14.33;100.00;100935.63;5099478;28;20035;-75
2023/09/01 06:14:07;;;;;;;21.70;7.40;;;;;;;14.36;100.00;100934.47;5093394;28;20020;-73
2023/09/01 06:16:32;;;;;;;21.52;7.90;;;;;;;14.37;100.00;100932.66;5095499;28;20036;-75
2023/09/01 06:19:03;;;;;;;24.23;7.85;;;;;;;14.39;100.00;100938.75;5086289;28;20031;-73
2023/09/01 06:21:28;;;;;;;19.98;8.27;;;;;;;14.41;100.00;100942.22;5090997;28;20487;-77
2023/09/01 06:23:54;;;;;;;26.77;8.85;;;;;;;14.41;100.00;100943.06;5098399;28;20023;-73
2023/09/01 06:26:19;;;;;;;21.60;8.93;;;;;;;14.44;100.00;100950.03;5089615;28;20027;-78
2023/09/01 06:28:46;;;;;;;21.77;8.60;;;;;;;14.45;100.00;100949.03;5105523;28;20020;-74
2023/09/01 06:31:13;;;;;;;21.38;8.13;;;;;;;14.47;100.00;100952.47;5110017;28;20031;-74
2023/09/01 06:33:43;;;;;;;23.15;8.50;;;;;;;14.46;100.00;100951.59;5105866;28;20028;-75
2023/09/01 06:36:10;;;;;;;25.08;8.65;;;;;;;14.49;100.00;100953.19;5105779;28;20092;-75
2023/09/01 06:38:36;;;;;;;23.73;9.65;;;;;;;14.50;100.00;100950.34;5114434;28;20038;-75
2023/09/01 06:41:03;;;;;;;21.70;8.13;;;;;;;14.51;100.00;100957.47;5098434;28;20028;-75
2023/09/01 06:43:29;;;;;;;23.63;8.80;;;;;;;14.54;100.00;100956.34;5110247;28;20081;-74
2023/09/01 06:45:54;;;;;;;23.45;9.10;;;;;;;14.56;100.00;100961.63;5106780;28;20040;-76
2023/09/01 06:48:20;;;;;;;25.27;8.93;;;;;;;14.55;100.00;100954.50;5110070;28;20027;-72
2023/09/01 06:50:49;;;;;;;22.08;8.55;;;;;;;14.57;100.00;100958.78;5113333;28;20044;-77
2023/09/01 06:53:14;;;;;;;22.10;9.77;;;;;;;14.58;100.00;100957.78;5086641;28;20105;-76
2023/09/01 06:55:39;;;;;;;25.08;9.45;;;;;;;14.61;100.00;100962.06;5082393;28;20135;-76
2023/09/01 06:58:05;;;;;;;23.52;9.32;;;;;;;14.63;100.00;100958.25;5082507;28;20024;-76
2023/09/01 07:00:31;;;;;;;20.95;9.35;;;;;;;14.63;100.00;100955.56;5091062;28;20039;-76
2023/09/01 07:02:56;;;;;;;24.33;10.52;;;;;;;14.65;100.00;100945.44;5088104;28;20035;-76
2023/09/01 07:05:23;;;;;;;24.35;9.70;;;;;;;14.68;100.00;100941.63;5090150;28;20120;-76
2023/09/01 07:07:50;;;;;;;22.33;9.88;;;;;;;14.68;100.00;100945.19;5101281;28;20471;-76
2023/09/01 07:10:16;;;;;;;26.13;9.95;;;;;;;14.71;100.00;100930.53;5089536;28;20018;-76
2023/09/01 07:12:41;;;;;;;24.52;10.18;;;;;;;14.71;100.00;100930.53;5095225;28;20112;-77
2023/09/01 07:15:08;;;;;;;22.55;9.80;;;;;;;14.73;100.00;100925.84;5097124;28;20448;-75
2023/09/01 07:17:33;;;;;;;21.33;9.55;;;;;;;14.76;100.00;100927.41;5101929;28;20119;-75
2023/09/01 07:19:58;;;;;;;21.70;10.50;;;;;;;14.77;100.00;100932.66;5089940;28;20057;-76
2023/09/01 07:22:23;;;;;;;24.13;10.35;;;;;;;14.78;100.00;100936.25;5095281;28;20024;-75
2023/09/01 07:24:49;;;;;;;24.70;9.35;;;;;;;14.79;100.00;100929.84;5095217;28;20398;-74
2023/09/01 07:27:14;;;;;;;31.45;10.07;;;;;;;14.79;100.00;100929.84;5094008;27;20589;-72
2023/09/01 07:29:40;;;;;;;24.10;10.50;;;;;;;14.79;100.00;100935.25;5091583;28;20042;-74
2023/09/01 07:32:05;;;;;;;24.83;11.88;;;;;;;14.77;100.00;100929.13;5089512;28;20020;-74
2023/09/01 07:34:30;;;;;;;23.65;10.70;;;;;;;14.79;100.00;100928.00;5089886;28;20103;-74
2023/09/01 07:36:56;;;;;;;23.60;11.13;;;;;;;14.79;100.00;100927.16;5098703;28;20077;-74
2023/09/01 07:39:21;;;;;;;26.33;11.00;;;;;;;14.79;100.00;100930.69;5089243;28;20034;-74
2023/09/01 07:41:47;;;;;;;23.17;10.93;;;;;;;14.79;100.00;100925.28;5095246;28;20024;-74
2023/09/01 07:44:16;;;;;;;26.42;11.48;;;;;;;14.77;100.00;100921.00;5091897;28;20027;-74
2023/09/01 07:46:42;;;;;;;23.95;12.07;;;;;;;14.78;100.00;100930.84;5082143;28;20051;-74
2023/09/01 07:49:08;;;;;;;23.98;11.02;;;;;;;14.78;100.00;100934.38;5080782;28;20035;-74
2023/09/01 07:51:33;;;;;;;24.38;11.50;;;;;;;14.79;100.00;100935.25;5087915;28;20032;-74
2023/09/01 07:53:59;;;;;;;25.08;11.98;;;;;;;14.80;100.00;100932.41;5083440;28;20123;-77
2023/09/01 07:56:24;;;;;;;25.77;11.63;;;;;;;14.81;100.00;100933.25;5086700;28;20020;-74
2023/09/01 07:58:50;;;;;;;25.10;12.25;;;;;;;14.84;100.00;100932.97;5084135;28;20483;-73
2023/09/01 08:01:15;;;;;;;22.52;10.82;;;;;;;14.86;100.00;100930.97;5087787;28;20787;-74
2023/09/01 08:03:40;;;;;;;29.20;11.90;;;;;;;14.89;100.00;100940.69;5088187;28;20575;-74
2023/09/01 08:06:06;;;;;;;23.10;9.98;;;;;;;14.88;100.00;100937.13;5089647;28;20060;-74
2023/09/01 08:08:31;;;;;;;23.83;10.98;;;;;;;14.91;100.00;100936.00;5082949;28;20107;-74
2023/09/01 08:10:56;;;;;;;23.38;10.40;;;;;;;14.92;100.00;100945.81;5090585;28;20128;-74
2023/09/01 08:13:22;;;;;;;21.88;10.73;;;;;;;14.94;100.00;100952.81;5086840;28;20077;-75
2023/09/01 08:15:48;;;;;;;27.33;10.93;;;;;;;14.94;100.00;100946.56;5087167;28;20024;-74
2023/09/01 08:18:14;;;;;;;23.40;11.88;;;;;;;14.97;100.00;100954.38;5087482;28;20131;-73
2023/09/01 08:20:40;;;;;;;22.60;10.77;;;;;;;14.99;100.00;100955.97;5087868;28;20391;-74
2023/09/01 08:23:05;;;;;;;22.85;10.88;;;;;;;15.00;100.00;100965.78;5083213;28;20031;-75
2023/09/01 08:25:32;;;;;;;21.42;11.25;;;;;;;15.01;100.00;100959.38;5088515;28;20028;-76
2023/09/01 08:27:58;;;;;;;25.05;11.43;;;;;;;15.02;100.00;100957.53;5089024;28;20127;-75
2023/09/01 08:30:23;;;;;;;25.35;12.00;;;;;;;15.03;100.00;100954.66;5089223;28;20111;-75
2023/09/01 08:49:06;;;;;;;21.92;10.98;;;;;;;15.06;100.00;100979.78;6172526;22;1285590;-73
2023/09/01 08:51:31;;;;;;;24.58;11.13;;;;;;;15.08;100.00;100991.31;6271216;22;20022;-71
2023/09/01 08:53:57;;;;;;;27.90;10.98;;;;;;;15.12;100.00;100990.88;6276182;22;20008;-71
2023/09/01 08:56:22;;;;;;;21.67;10.40;;;;;;;15.13;100.00;100986.34;6276652;22;20004;-71
2023/09/01 08:58:48;;;;;;;23.30;9.93;;;;;;;15.15;100.00;100987.03;6273937;22;20004;-71
2023/09/01 09:01:15;;;;;;;21.45;9.77;;;;;;;15.15;100.00;100987.03;6249074;22;20015;-71
2023/09/01 09:03:41;;;;;;;22.58;11.27;;;;;;;15.18;100.00;100986.75;6247239;22;20429;-72
2023/09/01 09:06:07;;;;;;;22.40;10.52;;;;;;;15.20;100.00;100996.47;6246525;22;20011;-72
2023/09/01 09:08:34;;;;;;;22.13;10.85;;;;;;;15.22;100.00;100999.03;6272276;22;20313;-72
2023/09/01 09:10:59;;;;;;;21.52;10.48;;;;;;;15.24;100.00;100998.91;6244870;22;20014;-72
2023/09/01 09:13:33;;;;;;;21.95;11.23;;;;;;;15.24;100.00;101002.44;6274238;22;20011;-72
2023/09/01 09:16:11;;;;;;;21.08;10.55;;;;;;;15.25;100.00;100995.19;6276784;22;20007;-70
2023/09/01 09:18:38;;;;;;;22.25;10.93;;;;;;;15.26;100.00;100996.91;6273425;22;20008;-72
2023/09/01 09:21:03;;;;;;;23.75;9.85;;;;;;;15.28;100.00;100993.06;6272670;22;20305;-72
2023/09/01 09:23:43;;;;;;;22.25;10.07;;;;;;;15.27;100.00;100988.66;6275620;22;20438;-71
2023/09/01 09:26:09;;;;;;;20.85;9.50;;;;;;;15.27;100.00;100985.06;6276209;22;20003;-71
2023/09/01 09:28:35;;;;;;;21.10;9.48;;;;;;;15.28;100.00;100989.50;6273145;22;20007;-72
2023/09/01 09:31:00;;;;;;;23.08;9.68;;;;;;;15.29;100.00;101002.91;6272615;22;20007;-74
2023/09/01 09:33:28;;;;;;;22.00;9.85;;;;;;;15.29;100.00;101005.59;6271275;22;20003;-72
2023/09/01 09:35:53;;;;;;;20.00;7.90;;;;;;;15.31;100.00;101008.19;6272920;22;20428;-72
2023/09/01 09:38:19;;;;;;;21.40;9.30;;;;;;;15.33;100.00;101009.75;6245471;22;20007;-71
2023/09/01 09:40:59;;;;;;;21.92;9.00;;;;;;;15.37;100.00;101013.91;6275831;22;20300;-72
2023/09/01 09:43:25;;;;;;;21.58;8.70;;;;;;;15.41;100.00;101011.75;6246331;22;20598;-72
2023/09/01 09:45:54;;;;;;;21.63;7.65;;;;;;;15.41;100.00;101014.47;6272762;22;20022;-73
2023/09/01 09:48:22;;;;;;;20.58;7.85;;;;;;;15.42;100.00;101018.00;6270679;22;20018;-73
2023/09/01 09:50:54;;;;;;;20.25;8.57;;;;;;;15.42;100.00;101010.75;6240400;22;20014;-72
2023/09/01 09:53:22;;;;;;;19.70;7.80;;;;;;;15.46;100.00;101014.03;6240244;22;20015;-75
2023/09/01 09:55:50;;;;;;;19.02;7.75;;;;;;;15.47;100.00;101004.94;6266397;22;20008;-71
2023/09/01 09:58:17;;;;;;;20.35;8.32;;;;;;;15.52;100.00;101005.34;6271974;22;20054;-74
2023/09/01 10:00:53;;;;;;;19.35;7.70;;;;;;;15.56;100.00;101006.78;6276244;22;20003;-73
2023/09/01 10:03:23;;;;;;;17.25;6.63;;;;;;;15.60;100.00;100991.13;6274967;22;20007;-74
2023/09/01 10:05:50;;;;;;;17.92;6.93;;;;;;;15.62;100.00;100991.81;6276280;22;20000;-74
2023/09/01 10:08:19;;;;;;;16.80;6.25;;;;;;;15.64;100.00;100984.41;6246004;22;20450;-75
2023/09/01 10:10:45;;;;;;;15.25;6.35;;;;;;;15.65;100.00;100986.97;6243241;22;20436;-75
2023/09/01 10:13:10;;;;;;;17.40;6.40;;;;;;;15.70;100.00;100986.56;6269754;22;20144;-74
2023/09/01 10:15:36;;;;;;;19.92;6.05;;;;;;;15.71;100.00;100983.69;6269839;22;20026;-75
2023/09/01 10:18:08;;;;;;;16.95;5.88;;;;;;;15.73;100.00;100989.81;6242842;22;20007;-74
2023/09/01 10:20:35;;;;;;;13.25;5.00;;;;;;;15.76;100.00;100987.84;6269328;22;20011;-75
2023/09/01 10:23:08;;;;;;;16.48;6.10;;;;;;;15.78;100.00;100993.97;6270025;22;20004;-73
2023/09/01 10:25:37;;;;;;;14.23;5.53;;;;;;;15.80;100.00;100997.41;6243164;22;20373;-75
2023/09/01 10:28:14;;;;;;;16.98;5.95;;;;;;;15.79;100.00;100998.41;6270182;22;20003;-75
2023/09/01 10:30:42;;;;;;;16.52;5.95;;;;;;;15.82;100.00;100998.13;6269304;22;20373;-74
2023/09/01 10:33:22;;;;;;;15.18;5.90;;;;;;;15.84;100.00;100998.81;6241953;22;20102;-75
2023/09/01 10:35:52;;;;;;;14.05;5.35;;;;;;;15.89;100.00;101002.81;6268657;22;20026;-74
2023/09/01 10:38:22;;;;;;;15.93;5.60;;;;;;;15.91;100.00;101002.69;6266947;22;20384;-75
2023/09/01 10:40:54;;;;;;;14.23;5.07;;;;;;;15.95;100.00;101009.53;6270366;22;20003;-75
2023/09/01 10:43:35;;;;;;;16.13;5.95;;;;;;;16.01;100.00;101008.94;6242297;22;20035;-75
2023/09/01 10:46:16;;;;;;;14.20;5.20;;;;;;;16.05;100.00;101017.66;6268399;22;20011;-73
2023/09/01 10:48:51;;;;;;;14.02;5.55;;;;;;;16.12;100.00;101021.50;6225101;23;20331;-75
2023/09/01 10:51:18;;;;;;;12.65;4.90;;;;;;;16.17;100.00;101021.91;6211263;23;20329;-75
2023/09/01 10:53:45;;;;;;;15.80;5.55;;;;;;;16.20;100.00;101023.50;6211813;23;20301;-75
2023/09/01 10:56:15;;;;;;;14.85;5.40;;;;;;;16.22;100.00;101032.31;6210969;23;20093;-75
2023/09/01 10:58:43;;;;;;;16.77;6.10;;;;;;;16.26;100.00;101022.91;6208340;23;20024;-75
2023/09/01 11:01:31;;;;;;;17.33;5.93;;;;;;;16.31;100.00;101020.63;6208368;23;20008;-75
2023/09/01 11:04:21;;;;;;;14.60;4.78;;;;;;;16.34;100.00;101020.34;6210030;23;20021;-75
2023/09/01 11:06:59;;;;;;;13.25;5.13;;;;;;;16.39;100.00;101022.59;6210646;23;20127;-77
2023/09/01 11:09:33;;;;;;;15.63;4.93;;;;;;;16.46;100.00;101012.00;6211037;23;20013;-75
2023/09/01 11:12:05;;;;;;;12.35;4.88;;;;;;;16.56;100.00;101015.53;6211011;23;20004;-74
2023/09/01 11:14:32;;;;;;;11.13;4.40;;;;;;;16.66;100.00;101010.09;6209154;23;20004;-75
2023/09/01 11:17:00;;;;;;;14.73;4.43;;;;;;;16.72;100.00;101012.19;6210844;23;20067;-75
2023/09/01 11:19:25;;;;;;;9.75;3.75;;;;;;;16.78;100.00;101011.63;6210394;23;20372;-72
2023/09/01 11:21:50;;;;;;;11.63;4.25;;;;;;;16.88;100.00;101017.91;6210707;23;20004;-72
2023/09/01 11:24:22;;;;;;;12.27;4.22;;;;;;;16.96;100.00;101017.16;6210597;23;20004;-72